sensor_id;sensor_type;location;lat;lon;timestamp;temperature;humidity
39925;DHT22;25592;49.986;11.618;2024-02-16T00:01:41;10.30;99.90
39925;DHT22;25592;49.986;11.618;2024-02-16T00:04:27;10.30;99.90
39925;DHT22;25592;49.986;11.618;2024-02-16T00:07:12;10.30;99.90
39925;DHT22;25592;49.986;11.618;2024-02-16T00:09:58;10.30;99.90
39925;DHT22;25592;49.986;11.618;2024-02-16T00:12:43;10.20;99.90
39925;DHT22;25592;49.986;11.618;2024-02-16T00:15:29;10.20;99.90
39925;DHT22;25592;49.986;11.618;2024-02-16T00:18:14;10.20;99.90
39925;DHT22;25592;49.986;11.618;2024-02-16T00:21:00;10.20;99.90
39925;DHT22;25592;49.986;11.618;2024-02-16T00:23:46;10.20;99.90
39925;DHT22;25592;49.986;11.618;2024-02-16T00:26:32;10.20;99.90
39925;DHT22;25592;49.986;11.618;2024-02-16T00:29:17;10.20;99.90
39925;DHT22;25592;49.986;11.618;2024-02-16T00:32:04;10.20;99.90
39925;DHT22;25592;49.986;11.618;2024-02-16T00:34:51;10.10;99.90
39925;DHT22;25592;49.986;11.618;2024-02-16T00:37:38;10.20;99.90
39925;DHT22;25592;49.986;11.618;2024-02-16T00:40:24;10.20;99.90
39925;DHT22;25592;49.986;11.618;2024-02-16T00:43:10;10.20;99.90
39925;DHT22;25592;49.986;11.618;2024-02-16T00:45:55;10.20;99.90
39925;DHT22;25592;49.986;11.618;2024-02-16T00:48:41;10.20;99.90
39925;DHT22;25592;49.986;11.618;2024-02-16T00:51:26;10.20;99.90
39925;DHT22;25592;49.986;11.618;2024-02-16T00:54:12;10.20;99.90
39925;DHT22;25592;49.986;11.618;2024-02-16T00:56:58;10.20;99.90
39925;DHT22;25592;49.986;11.618;2024-02-16T00:59:48;10.20;99.90
39925;DHT22;25592;49.986;11.618;2024-02-16T01:02:33;10.20;99.90
39925;DHT22;25592;49.986;11.618;2024-02-16T01:05:19;10.20;99.90
39925;DHT22;25592;49.986;11.618;2024-02-16T01:08:05;10.20;99.90
39925;DHT22;25592;49.986;11.618;2024-02-16T01:10:50;10.10;99.90
39925;DHT22;25592;49.986;11.618;2024-02-16T01:13:36;10.20;99.90
39925;DHT22;25592;49.986;11.618;2024-02-16T01:16:21;10.20;99.90
39925;DHT22;25592;49.986;11.618;2024-02-16T01:19:06;10.20;99.90
39925;DHT22;25592;49.986;11.618;2024-02-16T01:21:52;10.20;99.90
39925;DHT22;25592;49.986;11.618;2024-02-16T01:24:42;10.20;99.90
39925;DHT22;25592;49.986;11.618;2024-02-16T01:27:28;10.20;99.90
39925;DHT22;25592;49.986;11.618;2024-02-16T01:30:13;10.20;99.90
39925;DHT22;25592;49.986;11.618;2024-02-16T01:33:00;10.10;99.90
39925;DHT22;25592;49.986;11.618;2024-02-16T01:35:46;10.10;99.90
39925;DHT22;25592;49.986;11.618;2024-02-16T01:38:31;10.10;99.90
39925;DHT22;25592;49.986;11.618;2024-02-16T01:41:17;10.10;99.90
39925;DHT22;25592;49.986;11.618;2024-02-16T01:44:02;10.10;99.90
39925;DHT22;25592;49.986;11.618;2024-02-16T01:46:48;10.20;99.90
39925;DHT22;25592;49.986;11.618;2024-02-16T01:49:34;10.10;99.90
39925;DHT22;25592;49.986;11.618;2024-02-16T01:52:19;10.20;99.90
39925;DHT22;25592;49.986;11.618;2024-02-16T01:55:05;10.20;99.90
39925;DHT22;25592;49.986;11.618;2024-02-16T01:57:55;10.20;99.90
39925;DHT22;25592;49.986;11.618;2024-02-16T02:00:40;10.20;99.90
39925;DHT22;25592;49.986;11.618;2024-02-16T02:03:29;10.20;99.90
39925;DHT22;25592;49.986;11.618;2024-02-16T02:06:14;10.30;99.90
39925;DHT22;25592;49.986;11.618;2024-02-16T02:08:59;10.30;99.90
39925;DHT22;25592;49.986;11.618;2024-02-16T02:11:45;10.30;99.90
39925;DHT22;25592;49.986;11.618;2024-02-16T02:14:30;10.30;99.90
39925;DHT22;25592;49.986;11.618;2024-02-16T02:17:17;10.30;99.90
39925;DHT22;25592;49.986;11.618;2024-02-16T02:20:02;10.30;99.90
39925;DHT22;25592;49.986;11.618;2024-02-16T02:22:49;10.30;99.90
39925;DHT22;25592;49.986;11.618;2024-02-16T02:25:35;10.30;99.90
39925;DHT22;25592;49.986;11.618;2024-02-16T02:28:21;10.30;99.90
39925;DHT22;25592;49.986;11.618;2024-02-16T02:31:09;10.30;99.90
39925;DHT22;25592;49.986;11.618;2024-02-16T02:33:54;10.30;99.90
39925;DHT22;25592;49.986;11.618;2024-02-16T02:36:40;10.30;99.90
39925;DHT22;25592;49.986;11.618;2024-02-16T02:39:25;10.30;99.90
39925;DHT22;25592;49.986;11.618;2024-02-16T02:42:11;10.30;99.90
39925;DHT22;25592;49.986;11.618;2024-02-16T02:44:56;10.30;99.90
39925;DHT22;25592;49.986;11.618;2024-02-16T02:47:41;10.30;99.90
39925;DHT22;25592;49.986;11.618;2024-02-16T02:50:27;10.30;99.90
39925;DHT22;25592;49.986;11.618;2024-02-16T02:53:12;10.30;99.90
39925;DHT22;25592;49.986;11.618;2024-02-16T02:55:57;10.30;99.90
39925;DHT22;25592;49.986;11.618;2024-02-16T02:58:43;10.30;99.90
39925;DHT22;25592;49.986;11.618;2024-02-16T03:01:28;10.20;99.90
39925;DHT22;25592;49.986;11.618;2024-02-16T03:04:14;10.30;99.90
39925;DHT22;25592;49.986;11.618;2024-02-16T03:06:59;10.30;99.90
39925;DHT22;25592;49.986;11.618;2024-02-16T03:09:44;10.20;99.90
39925;DHT22;25592;49.986;11.618;2024-02-16T03:12:32;10.20;99.90
39925;DHT22;25592;49.986;11.618;2024-02-16T03:15:18;10.20;99.90
39925;DHT22;25592;49.986;11.618;2024-02-16T03:18:04;10.20;99.90
39925;DHT22;25592;49.986;11.618;2024-02-16T03:20:49;10.20;99.90
39925;DHT22;25592;49.986;11.618;2024-02-16T03:23:35;10.10;99.90
39925;DHT22;25592;49.986;11.618;2024-02-16T03:26:22;10.20;99.90
39925;DHT22;25592;49.986;11.618;2024-02-16T03:29:08;10.20;99.90
39925;DHT22;25592;49.986;11.618;2024-02-16T03:31:53;10.20;99.90
39925;DHT22;25592;49.986;11.618;2024-02-16T03:34:39;10.20;99.90
39925;DHT22;25592;49.986;11.618;2024-02-16T03:37:25;10.10;99.90
39925;DHT22;25592;49.986;11.618;2024-02-16T03:40:10;10.10;99.90
39925;DHT22;25592;49.986;11.618;2024-02-16T03:42:58;10.20;99.90
39925;DHT22;25592;49.986;11.618;2024-02-16T03:45:43;10.20;99.90
39925;DHT22;25592;49.986;11.618;2024-02-16T03:48:29;10.10;99.90
39925;DHT22;25592;49.986;11.618;2024-02-16T03:51:15;10.10;99.90
39925;DHT22;25592;49.986;11.618;2024-02-16T03:54:01;10.10;99.90
39925;DHT22;25592;49.986;11.618;2024-02-16T03:56:47;10.10;99.90
39925;DHT22;25592;49.986;11.618;2024-02-16T03:59:33;10.10;99.90
39925;DHT22;25592;49.986;11.618;2024-02-16T04:02:18;10.10;99.90
39925;DHT22;25592;49.986;11.618;2024-02-16T04:05:04;10.10;99.90
39925;DHT22;25592;49.986;11.618;2024-02-16T04:07:49;10.10;99.90
39925;DHT22;25592;49.986;11.618;2024-02-16T04:10:35;10.10;99.90
39925;DHT22;25592;49.986;11.618;2024-02-16T04:13:20;10.20;99.90
39925;DHT22;25592;49.986;11.618;2024-02-16T04:16:06;10.20;99.90
39925;DHT22;25592;49.986;11.618;2024-02-16T04:18:52;10.10;99.90
39925;DHT22;25592;49.986;11.618;2024-02-16T04:21:37;10.20;99.90
39925;DHT22;25592;49.986;11.618;2024-02-16T04:24:23;10.20;99.90
39925;DHT22;25592;49.986;11.618;2024-02-16T04:27:08;10.10;99.90
39925;DHT22;25592;49.986;11.618;2024-02-16T04:29:54;10.00;99.90
39925;DHT22;25592;49.986;11.618;2024-02-16T04:32:39;10.00;99.90
39925;DHT22;25592;49.986;11.618;2024-02-16T04:35:25;9.90;99.90
39925;DHT22;25592;49.986;11.618;2024-02-16T04:38:10;9.90;99.90
39925;DHT22;25592;49.986;11.618;2024-02-16T04:40:56;9.90;99.90
39925;DHT22;25592;49.986;11.618;2024-02-16T04:43:41;10.00;99.90
39925;DHT22;25592;49.986;11.618;2024-02-16T04:46:27;10.00;99.90
39925;DHT22;25592;49.986;11.618;2024-02-16T04:49:12;10.00;99.90
39925;DHT22;25592;49.986;11.618;2024-02-16T04:51:58;10.00;99.90
39925;DHT22;25592;49.986;11.618;2024-02-16T04:54:44;10.00;99.90
39925;DHT22;25592;49.986;11.618;2024-02-16T04:57:29;10.00;99.90
39925;DHT22;25592;49.986;11.618;2024-02-16T05:00:15;10.00;99.90
39925;DHT22;25592;49.986;11.618;2024-02-16T05:03:00;10.10;99.90
39925;DHT22;25592;49.986;11.618;2024-02-16T05:05:46;10.00;99.90
39925;DHT22;25592;49.986;11.618;2024-02-16T05:08:31;10.00;99.90
39925;DHT22;25592;49.986;11.618;2024-02-16T05:11:17;10.10;99.90
39925;DHT22;25592;49.986;11.618;2024-02-16T05:14:02;10.10;99.90
39925;DHT22;25592;49.986;11.618;2024-02-16T05:16:48;10.10;99.90
39925;DHT22;25592;49.986;11.618;2024-02-16T05:19:35;10.10;99.90
39925;DHT22;25592;49.986;11.618;2024-02-16T05:22:22;10.00;99.90
39925;DHT22;25592;49.986;11.618;2024-02-16T05:25:09;10.10;99.90
39925;DHT22;25592;49.986;11.618;2024-02-16T05:27:55;10.00;99.90
39925;DHT22;25592;49.986;11.618;2024-02-16T05:30:40;10.10;99.90
39925;DHT22;25592;49.986;11.618;2024-02-16T05:33:26;10.10;99.90
39925;DHT22;25592;49.986;11.618;2024-02-16T05:36:12;10.00;99.90
39925;DHT22;25592;49.986;11.618;2024-02-16T05:38:57;10.00;99.90
39925;DHT22;25592;49.986;11.618;2024-02-16T05:41:55;10.10;99.90
39925;DHT22;25592;49.986;11.618;2024-02-16T05:44:40;10.10;99.90
39925;DHT22;25592;49.986;11.618;2024-02-16T05:47:27;10.10;99.90
39925;DHT22;25592;49.986;11.618;2024-02-16T05:50:14;10.10;99.90
39925;DHT22;25592;49.986;11.618;2024-02-16T05:53:00;10.10;99.90
39925;DHT22;25592;49.986;11.618;2024-02-16T05:55:45;10.00;99.90
39925;DHT22;25592;49.986;11.618;2024-02-16T05:58:32;9.90;99.90
39925;DHT22;25592;49.986;11.618;2024-02-16T06:01:18;9.90;99.90
39925;DHT22;25592;49.986;11.618;2024-02-16T06:04:04;10.00;99.90
39925;DHT22;25592;49.986;11.618;2024-02-16T06:06:49;10.00;99.90
39925;DHT22;25592;49.986;11.618;2024-02-16T06:09:35;10.00;99.90
39925;DHT22;25592;49.986;11.618;2024-02-16T06:12:22;10.00;99.90
39925;DHT22;25592;49.986;11.618;2024-02-16T06:15:07;10.00;99.90
39925;DHT22;25592;49.986;11.618;2024-02-16T06:17:53;10.00;99.90
39925;DHT22;25592;49.986;11.618;2024-02-16T06:20:39;10.00;99.90
39925;DHT22;25592;49.986;11.618;2024-02-16T06:23:24;10.10;99.90
39925;DHT22;25592;49.986;11.618;2024-02-16T06:26:11;10.10;99.90
39925;DHT22;25592;49.986;11.618;2024-02-16T06:28:56;10.10;99.90
39925;DHT22;25592;49.986;11.618;2024-02-16T06:31:43;10.10;99.90
39925;DHT22;25592;49.986;11.618;2024-02-16T06:34:30;10.10;99.90
39925;DHT22;25592;49.986;11.618;2024-02-16T06:37:16;10.10;99.90
39925;DHT22;25592;49.986;11.618;2024-02-16T06:40:02;10.10;99.90
39925;DHT22;25592;49.986;11.618;2024-02-16T06:42:47;10.10;99.90
39925;DHT22;25592;49.986;11.618;2024-02-16T06:45:33;10.10;99.90
39925;DHT22;25592;49.986;11.618;2024-02-16T06:48:18;10.10;99.90
39925;DHT22;25592;49.986;11.618;2024-02-16T06:51:04;10.10;99.90
39925;DHT22;25592;49.986;11.618;2024-02-16T06:53:52;10.00;99.90
39925;DHT22;25592;49.986;11.618;2024-02-16T06:56:38;10.00;99.90
39925;DHT22;25592;49.986;11.618;2024-02-16T06:59:23;10.00;99.90
39925;DHT22;25592;49.986;11.618;2024-02-16T07:02:09;10.00;99.90
39925;DHT22;25592;49.986;11.618;2024-02-16T07:04:56;10.10;99.90
39925;DHT22;25592;49.986;11.618;2024-02-16T07:07:41;10.00;99.90
39925;DHT22;25592;49.986;11.618;2024-02-16T07:10:27;10.10;99.90
39925;DHT22;25592;49.986;11.618;2024-02-16T07:13:13;10.00;99.90
39925;DHT22;25592;49.986;11.618;2024-02-16T07:15:58;10.10;99.90
39925;DHT22;25592;49.986;11.618;2024-02-16T07:18:44;10.10;99.90
39925;DHT22;25592;49.986;11.618;2024-02-16T07:21:29;10.10;99.90
39925;DHT22;25592;49.986;11.618;2024-02-16T07:24:15;10.10;99.90
39925;DHT22;25592;49.986;11.618;2024-02-16T07:27:01;10.10;99.90
39925;DHT22;25592;49.986;11.618;2024-02-16T07:29:47;10.10;99.90
39925;DHT22;25592;49.986;11.618;2024-02-16T07:32:32;10.10;99.90
39925;DHT22;25592;49.986;11.618;2024-02-16T07:35:21;10.20;99.90
39925;DHT22;25592;49.986;11.618;2024-02-16T07:38:09;10.10;99.90
39925;DHT22;25592;49.986;11.618;2024-02-16T07:40:55;10.10;99.90
39925;DHT22;25592;49.986;11.618;2024-02-16T07:43:40;10.10;99.90
39925;DHT22;25592;49.986;11.618;2024-02-16T07:46:26;10.20;99.90
39925;DHT22;25592;49.986;11.618;2024-02-16T07:49:11;10.20;99.90
39925;DHT22;25592;49.986;11.618;2024-02-16T07:51:57;10.20;99.90
39925;DHT22;25592;49.986;11.618;2024-02-16T07:54:42;10.30;99.90
39925;DHT22;25592;49.986;11.618;2024-02-16T07:57:28;10.20;99.90
39925;DHT22;25592;49.986;11.618;2024-02-16T08:00:14;10.20;99.90
39925;DHT22;25592;49.986;11.618;2024-02-16T08:03:01;10.30;99.90
39925;DHT22;25592;49.986;11.618;2024-02-16T08:05:47;10.30;99.90
39925;DHT22;25592;49.986;11.618;2024-02-16T08:08:33;10.20;99.90
39925;DHT22;25592;49.986;11.618;2024-02-16T08:11:18;10.20;99.90
39925;DHT22;25592;49.986;11.618;2024-02-16T08:14:05;10.10;99.90
39925;DHT22;25592;49.986;11.618;2024-02-16T08:16:50;10.10;99.90
39925;DHT22;25592;49.986;11.618;2024-02-16T08:19:53;10.10;99.90
39925;DHT22;25592;49.986;11.618;2024-02-16T08:22:39;10.20;99.90
39925;DHT22;25592;49.986;11.618;2024-02-16T08:25:24;10.20;99.90
39925;DHT22;25592;49.986;11.618;2024-02-16T08:28:10;10.20;99.90
39925;DHT22;25592;49.986;11.618;2024-02-16T08:30:55;10.20;99.90
39925;DHT22;25592;49.986;11.618;2024-02-16T08:33:41;10.10;99.90
39925;DHT22;25592;49.986;11.618;2024-02-16T08:36:27;10.20;99.90
39925;DHT22;25592;49.986;11.618;2024-02-16T08:39:16;10.30;99.90
39925;DHT22;25592;49.986;11.618;2024-02-16T08:42:04;10.30;99.90
39925;DHT22;25592;49.986;11.618;2024-02-16T08:44:51;10.30;99.90
39925;DHT22;25592;49.986;11.618;2024-02-16T08:47:36;10.30;99.90
39925;DHT22;25592;49.986;11.618;2024-02-16T08:50:21;10.30;99.90
39925;DHT22;25592;49.986;11.618;2024-02-16T08:53:07;10.40;99.90
39925;DHT22;25592;49.986;11.618;2024-02-16T08:55:55;10.50;99.90
39925;DHT22;25592;49.986;11.618;2024-02-16T08:58:41;10.50;99.90
39925;DHT22;25592;49.986;11.618;2024-02-16T09:01:35;10.60;99.90
39925;DHT22;25592;49.986;11.618;2024-02-16T09:04:20;10.60;99.90
39925;DHT22;25592;49.986;11.618;2024-02-16T09:07:06;10.70;99.90
39925;DHT22;25592;49.986;11.618;2024-02-16T09:09:51;10.80;99.90
39925;DHT22;25592;49.986;11.618;2024-02-16T09:12:37;10.80;99.90
39925;DHT22;25592;49.986;11.618;2024-02-16T09:15:22;10.80;99.90
39925;DHT22;25592;49.986;11.618;2024-02-16T09:18:08;10.80;99.90
39925;DHT22;25592;49.986;11.618;2024-02-16T09:20:53;10.90;99.90
39925;DHT22;25592;49.986;11.618;2024-02-16T09:23:40;10.90;99.90
39925;DHT22;25592;49.986;11.618;2024-02-16T09:26:25;10.90;99.90
39925;DHT22;25592;49.986;11.618;2024-02-16T09:29:15;10.80;99.90
39925;DHT22;25592;49.986;11.618;2024-02-16T09:32:00;10.90;99.90
39925;DHT22;25592;49.986;11.618;2024-02-16T09:34:46;10.90;99.90
39925;DHT22;25592;49.986;11.618;2024-02-16T09:37:32;10.90;99.90
39925;DHT22;25592;49.986;11.618;2024-02-16T09:40:17;10.90;99.90
39925;DHT22;25592;49.986;11.618;2024-02-16T09:43:05;11.00;99.90
39925;DHT22;25592;49.986;11.618;2024-02-16T09:45:58;11.10;99.90
39925;DHT22;25592;49.986;11.618;2024-02-16T09:48:46;11.20;99.90
39925;DHT22;25592;49.986;11.618;2024-02-16T09:51:36;11.30;99.90
39925;DHT22;25592;49.986;11.618;2024-02-16T09:54:21;11.40;99.90
39925;DHT22;25592;49.986;11.618;2024-02-16T09:57:08;11.60;99.90
39925;DHT22;25592;49.986;11.618;2024-02-16T09:59:54;11.60;99.90
39925;DHT22;25592;49.986;11.618;2024-02-16T10:02:41;11.60;99.90
39925;DHT22;25592;49.986;11.618;2024-02-16T10:05:27;11.70;99.90
39925;DHT22;25592;49.986;11.618;2024-02-16T10:08:15;11.70;99.90
39925;DHT22;25592;49.986;11.618;2024-02-16T10:11:05;11.60;99.90
39925;DHT22;25592;49.986;11.618;2024-02-16T10:14:01;11.70;99.90
39925;DHT22;25592;49.986;11.618;2024-02-16T10:16:47;11.70;99.90
39925;DHT22;25592;49.986;11.618;2024-02-16T10:19:33;11.80;99.90
39925;DHT22;25592;49.986;11.618;2024-02-16T10:22:28;11.90;99.90
39925;DHT22;25592;49.986;11.618;2024-02-16T10:25:13;11.90;99.90
39925;DHT22;25592;49.986;11.618;2024-02-16T10:28:09;11.90;99.90
39925;DHT22;25592;49.986;11.618;2024-02-16T10:30:58;11.90;99.90
39925;DHT22;25592;49.986;11.618;2024-02-16T10:33:46;12.00;99.90
39925;DHT22;25592;49.986;11.618;2024-02-16T10:36:36;12.10;99.90
39925;DHT22;25592;49.986;11.618;2024-02-16T10:39:23;12.20;99.90
39925;DHT22;25592;49.986;11.618;2024-02-16T10:42:10;12.20;99.90
39925;DHT22;25592;49.986;11.618;2024-02-16T10:44:57;12.20;99.90
39925;DHT22;25592;49.986;11.618;2024-02-16T10:47:42;12.20;99.90
39925;DHT22;25592;49.986;11.618;2024-02-16T10:50:28;12.10;99.90
39925;DHT22;25592;49.986;11.618;2024-02-16T10:53:19;12.20;99.90
39925;DHT22;25592;49.986;11.618;2024-02-16T10:56:07;12.30;99.90
39925;DHT22;25592;49.986;11.618;2024-02-16T10:58:52;12.30;99.90
39925;DHT22;25592;49.986;11.618;2024-02-16T11:04:24;12.20;99.90
39925;DHT22;25592;49.986;11.618;2024-02-16T11:07:17;12.30;99.90
39925;DHT22;25592;49.986;11.618;2024-02-16T11:10:03;12.20;99.90
39925;DHT22;25592;49.986;11.618;2024-02-16T11:12:49;12.30;99.90
39925;DHT22;25592;49.986;11.618;2024-02-16T11:15:37;12.40;99.90
39925;DHT22;25592;49.986;11.618;2024-02-16T11:18:22;12.40;99.90
39925;DHT22;25592;49.986;11.618;2024-02-16T11:21:11;12.40;99.90
39925;DHT22;25592;49.986;11.618;2024-02-16T11:24:06;12.40;99.90
39925;DHT22;25592;49.986;11.618;2024-02-16T11:26:53;12.40;99.90
39925;DHT22;25592;49.986;11.618;2024-02-16T11:29:41;12.30;99.90
39925;DHT22;25592;49.986;11.618;2024-02-16T11:32:26;12.30;99.90
39925;DHT22;25592;49.986;11.618;2024-02-16T11:35:12;12.40;99.90
39925;DHT22;25592;49.986;11.618;2024-02-16T11:37:57;12.40;99.90
39925;DHT22;25592;49.986;11.618;2024-02-16T11:40:53;12.40;99.90
39925;DHT22;25592;49.986;11.618;2024-02-16T11:43:38;12.50;99.90
39925;DHT22;25592;49.986;11.618;2024-02-16T11:46:24;12.70;99.90
39925;DHT22;25592;49.986;11.618;2024-02-16T11:49:10;12.90;99.90
39925;DHT22;25592;49.986;11.618;2024-02-16T11:51:56;13.00;99.90
39925;DHT22;25592;49.986;11.618;2024-02-16T11:54:44;12.90;99.90
39925;DHT22;25592;49.986;11.618;2024-02-16T11:57:30;12.90;99.90
39925;DHT22;25592;49.986;11.618;2024-02-16T12:00:15;12.90;99.90
39925;DHT22;25592;49.986;11.618;2024-02-16T12:03:01;12.90;99.90
39925;DHT22;25592;49.986;11.618;2024-02-16T12:05:57;12.90;99.90
39925;DHT22;25592;49.986;11.618;2024-02-16T12:08:43;13.00;99.90
39925;DHT22;25592;49.986;11.618;2024-02-16T12:11:29;13.10;99.90
39925;DHT22;25592;49.986;11.618;2024-02-16T12:14:16;13.10;99.90
39925;DHT22;25592;49.986;11.618;2024-02-16T12:17:03;13.30;99.90
39925;DHT22;25592;49.986;11.618;2024-02-16T12:19:51;13.30;99.90
39925;DHT22;25592;49.986;11.618;2024-02-16T12:22:37;13.40;99.90
39925;DHT22;25592;49.986;11.618;2024-02-16T12:25:23;13.50;99.90
39925;DHT22;25592;49.986;11.618;2024-02-16T12:28:08;13.70;99.90
39925;DHT22;25592;49.986;11.618;2024-02-16T12:30:55;13.80;99.90
39925;DHT22;25592;49.986;11.618;2024-02-16T12:33:41;13.80;99.90
39925;DHT22;25592;49.986;11.618;2024-02-16T12:36:27;13.80;99.90
39925;DHT22;25592;49.986;11.618;2024-02-16T12:39:13;13.90;99.90
39925;DHT22;25592;49.986;11.618;2024-02-16T12:42:00;14.00;99.90
39925;DHT22;25592;49.986;11.618;2024-02-16T12:44:45;14.00;99.90
39925;DHT22;25592;49.986;11.618;2024-02-16T12:47:31;14.00;99.90
39925;DHT22;25592;49.986;11.618;2024-02-16T12:50:17;14.00;99.90
39925;DHT22;25592;49.986;11.618;2024-02-16T12:53:03;14.00;99.90
39925;DHT22;25592;49.986;11.618;2024-02-16T12:55:49;14.00;99.90
39925;DHT22;25592;49.986;11.618;2024-02-16T12:58:36;14.10;99.90
39925;DHT22;25592;49.986;11.618;2024-02-16T13:01:21;14.10;99.90
39925;DHT22;25592;49.986;11.618;2024-02-16T13:04:11;14.10;99.90
39925;DHT22;25592;49.986;11.618;2024-02-16T13:06:58;14.00;99.90
39925;DHT22;25592;49.986;11.618;2024-02-16T13:09:44;14.00;99.90
39925;DHT22;25592;49.986;11.618;2024-02-16T13:12:30;14.10;99.90
39925;DHT22;25592;49.986;11.618;2024-02-16T13:15:16;14.20;99.90
39925;DHT22;25592;49.986;11.618;2024-02-16T13:18:16;14.30;99.90
39925;DHT22;25592;49.986;11.618;2024-02-16T13:21:02;14.40;99.90
39925;DHT22;25592;49.986;11.618;2024-02-16T13:23:47;14.60;99.90
39925;DHT22;25592;49.986;11.618;2024-02-16T13:26:33;14.60;99.90
39925;DHT22;25592;49.986;11.618;2024-02-16T13:29:18;14.70;99.90
39925;DHT22;25592;49.986;11.618;2024-02-16T13:32:04;14.70;99.90
39925;DHT22;25592;49.986;11.618;2024-02-16T13:34:50;14.80;99.90
39925;DHT22;25592;49.986;11.618;2024-02-16T13:37:35;14.80;99.90
39925;DHT22;25592;49.986;11.618;2024-02-16T13:40:22;14.80;99.90
39925;DHT22;25592;49.986;11.618;2024-02-16T13:43:09;14.90;99.90
39925;DHT22;25592;49.986;11.618;2024-02-16T13:45:54;14.80;99.90
39925;DHT22;25592;49.986;11.618;2024-02-16T13:48:42;14.80;99.90
39925;DHT22;25592;49.986;11.618;2024-02-16T13:51:28;14.80;99.90
39925;DHT22;25592;49.986;11.618;2024-02-16T13:54:13;14.80;99.90
39925;DHT22;25592;49.986;11.618;2024-02-16T13:56:59;14.80;99.90
39925;DHT22;25592;49.986;11.618;2024-02-16T13:59:45;14.90;99.90
39925;DHT22;25592;49.986;11.618;2024-02-16T14:02:31;14.90;99.90
39925;DHT22;25592;49.986;11.618;2024-02-16T14:05:16;14.70;99.90
39925;DHT22;25592;49.986;11.618;2024-02-16T14:08:02;14.60;99.90
39925;DHT22;25592;49.986;11.618;2024-02-16T14:10:52;14.60;99.90
39925;DHT22;25592;49.986;11.618;2024-02-16T14:13:37;14.60;99.90
39925;DHT22;25592;49.986;11.618;2024-02-16T14:16:25;14.60;99.90
39925;DHT22;25592;49.986;11.618;2024-02-16T14:19:16;14.60;99.90
39925;DHT22;25592;49.986;11.618;2024-02-16T14:22:11;14.50;99.90
39925;DHT22;25592;49.986;11.618;2024-02-16T14:25:01;14.60;99.90
39925;DHT22;25592;49.986;11.618;2024-02-16T14:27:57;14.50;99.90
39925;DHT22;25592;49.986;11.618;2024-02-16T14:30:47;14.50;99.90
39925;DHT22;25592;49.986;11.618;2024-02-16T14:33:47;14.60;99.90
39925;DHT22;25592;49.986;11.618;2024-02-16T14:36:35;14.60;99.90
39925;DHT22;25592;49.986;11.618;2024-02-16T14:39:27;14.60;99.90
39925;DHT22;25592;49.986;11.618;2024-02-16T14:42:28;14.70;99.90
39925;DHT22;25592;49.986;11.618;2024-02-16T14:45:20;14.80;99.90
39925;DHT22;25592;49.986;11.618;2024-02-16T14:48:23;15.10;99.90
39925;DHT22;25592;49.986;11.618;2024-02-16T14:51:23;15.30;99.90
39925;DHT22;25592;49.986;11.618;2024-02-16T14:54:15;15.30;99.90
39925;DHT22;25592;49.986;11.618;2024-02-16T14:57:19;15.30;99.90
39925;DHT22;25592;49.986;11.618;2024-02-16T15:00:09;15.10;99.90
39925;DHT22;25592;49.986;11.618;2024-02-16T15:02:58;15.00;99.90
39925;DHT22;25592;49.986;11.618;2024-02-16T15:05:54;14.90;99.90
39925;DHT22;25592;49.986;11.618;2024-02-16T15:08:47;14.90;99.90
39925;DHT22;25592;49.986;11.618;2024-02-16T15:11:36;14.90;99.90
39925;DHT22;25592;49.986;11.618;2024-02-16T15:14:26;14.80;99.90
39925;DHT22;25592;49.986;11.618;2024-02-16T15:17:13;14.70;99.90
39925;DHT22;25592;49.986;11.618;2024-02-16T15:20:00;14.70;99.90
39925;DHT22;25592;49.986;11.618;2024-02-16T15:23:08;14.50;99.90
39925;DHT22;25592;49.986;11.618;2024-02-16T15:26:00;14.40;99.90
39925;DHT22;25592;49.986;11.618;2024-02-16T15:29:04;14.30;99.90
39925;DHT22;25592;49.986;11.618;2024-02-16T15:31:55;14.30;99.90
39925;DHT22;25592;49.986;11.618;2024-02-16T15:34:54;14.40;99.90
39925;DHT22;25592;49.986;11.618;2024-02-16T15:37:51;14.40;99.90
39925;DHT22;25592;49.986;11.618;2024-02-16T15:40:45;14.40;99.90
39925;DHT22;25592;49.986;11.618;2024-02-16T15:43:35;14.60;99.90
39925;DHT22;25592;49.986;11.618;2024-02-16T15:46:23;14.60;99.90
39925;DHT22;25592;49.986;11.618;2024-02-16T15:49:18;14.60;99.90
39925;DHT22;25592;49.986;11.618;2024-02-16T15:52:27;14.50;99.90
39925;DHT22;25592;49.986;11.618;2024-02-16T15:55:24;14.50;99.90
39925;DHT22;25592;49.986;11.618;2024-02-16T15:58:24;14.50;99.90
39925;DHT22;25592;49.986;11.618;2024-02-16T16:01:22;14.30;99.90
39925;DHT22;25592;49.986;11.618;2024-02-16T16:04:39;14.20;99.90
39925;DHT22;25592;49.986;11.618;2024-02-16T16:07:34;14.10;99.90
39925;DHT22;25592;49.986;11.618;2024-02-16T16:10:44;14.10;99.90
39925;DHT22;25592;49.986;11.618;2024-02-16T16:13:39;14.20;99.90
39925;DHT22;25592;49.986;11.618;2024-02-16T16:16:42;14.10;99.90
39925;DHT22;25592;49.986;11.618;2024-02-16T16:19:45;14.10;99.90
39925;DHT22;25592;49.986;11.618;2024-02-16T16:22:37;14.10;99.90
39925;DHT22;25592;49.986;11.618;2024-02-16T16:25:29;14.10;99.90
39925;DHT22;25592;49.986;11.618;2024-02-16T16:28:18;14.00;99.90
39925;DHT22;25592;49.986;11.618;2024-02-16T16:31:06;14.00;99.90
39925;DHT22;25592;49.986;11.618;2024-02-16T16:33:54;13.90;99.90
39925;DHT22;25592;49.986;11.618;2024-02-16T16:36:39;13.90;99.90
39925;DHT22;25592;49.986;11.618;2024-02-16T16:39:26;13.80;99.90
39925;DHT22;25592;49.986;11.618;2024-02-16T16:42:12;13.80;99.90
39925;DHT22;25592;49.986;11.618;2024-02-16T16:44:59;13.70;99.90
39925;DHT22;25592;49.986;11.618;2024-02-16T16:47:45;13.60;99.90
39925;DHT22;25592;49.986;11.618;2024-02-16T16:50:31;13.60;99.90
39925;DHT22;25592;49.986;11.618;2024-02-16T16:53:17;13.60;99.90
39925;DHT22;25592;49.986;11.618;2024-02-16T16:56:04;13.60;99.90
39925;DHT22;25592;49.986;11.618;2024-02-16T16:58:49;13.60;99.90
39925;DHT22;25592;49.986;11.618;2024-02-16T17:01:34;13.50;99.90
39925;DHT22;25592;49.986;11.618;2024-02-16T17:04:21;13.50;99.90
39925;DHT22;25592;49.986;11.618;2024-02-16T17:07:07;13.60;99.90
39925;DHT22;25592;49.986;11.618;2024-02-16T17:09:52;13.50;99.90
39925;DHT22;25592;49.986;11.618;2024-02-16T17:12:39;13.50;99.90
39925;DHT22;25592;49.986;11.618;2024-02-16T17:15:25;13.40;99.90
39925;DHT22;25592;49.986;11.618;2024-02-16T17:18:11;13.50;99.90
39925;DHT22;25592;49.986;11.618;2024-02-16T17:20:57;13.40;99.90
39925;DHT22;25592;49.986;11.618;2024-02-16T17:23:43;13.50;99.90